"WATCHING THE WEATHER TO PROTECT LIFE AND PROPERTY"


Aviation
Satellite (InfraRed)


TNCA 261400Z 10011KT 070V140 9999 FEW022 30/23 Q1013 A2992 NOSIG
TNCB 261355Z 10012KT 070V140 9999 SCT018 31/23 Q1013
TNCC 261400Z 09010KT 9999 SCT022 29/24 Q1014 NOSIG
TNCM 261400Z 14011KT 9999 SCT018 27/24 Q1015 A2998 NOSIG